TimeCDT,TemperatureF,Dew PointF,Humidity,Sea Level PressureIn,VisibilityMPH,Wind Direction,Wind SpeedMPH,Gust SpeedMPH,PrecipitationIn,Events,Conditions,WindDirDegrees,DateUTC
12:52 AM,57.9,48.9,72,29.97,10.0,SE,4.6,-,N/A,,Clear,140,2012-10-04 05:52:00
1:52 AM,55.9,48.9,77,29.99,10.0,SE,3.5,-,N/A,,Clear,140,2012-10-04 06:52:00
2:52 AM,55.0,48.9,80,29.99,10.0,SE,5.8,-,N/A,,Clear,140,2012-10-04 07:52:00
3:52 AM,60.1,50.0,69,29.98,10.0,South,5.8,-,N/A,,Clear,190,2012-10-04 08:52:00
4:52 AM,64.0,50.0,60,30.02,10.0,WSW,5.8,-,N/A,,Clear,250,2012-10-04 09:52:00
5:52 AM,61.0,50.0,67,30.07,10.0,NW,17.3,23.0,N/A,,Clear,320,2012-10-04 10:52:00
6:52 AM,57.0,42.1,57,30.11,10.0,NNW,12.7,-,N/A,,Clear,340,2012-10-04 11:52:00
7:52 AM,55.9,42.1,60,30.12,10.0,NNW,10.4,-,N/A,,Mostly Cloudy,340,2012-10-04 12:52:00
8:52 AM,55.9,42.1,60,30.17,10.0,NNW,13.8,-,N/A,,Partly Cloudy,330,2012-10-04 13:52:00
9:52 AM,57.9,44.1,60,30.19,10.0,North,18.4,27.6,N/A,,Scattered Clouds,350,2012-10-04 14:52:00
10:52 AM,57.0,43.0,59,30.24,10.0,NNW,18.4,-,N/A,,Mostly Cloudy,340,2012-10-04 15:52:00
11:02 AM,57.2,42.8,59,30.23,10.0,NNW,15.0,20.7,N/A,,Overcast,340,2012-10-04 16:02:00
11:39 AM,57.2,41.0,55,30.24,10.0,NNW,17.3,24.2,N/A,,Scattered Clouds,340,2012-10-04 16:39:00
11:52 AM,59.0,41.0,51,30.24,10.0,NNW,20.7,-,N/A,,Mostly Cloudy,330,2012-10-04 16:52:00
12:52 PM,57.9,41.0,53,30.24,10.0,NNW,19.6,26.5,N/A,,Scattered Clouds,340,2012-10-04 17:52:00
1:52 PM,52.0,37.9,59,30.26,10.0,North,15.0,24.2,N/A,,Overcast,350,2012-10-04 18:52:00
2:52 PM,52.0,37.0,57,30.26,10.0,North,12.7,-,N/A,,Overcast,360,2012-10-04 19:52:00
3:52 PM,53.1,37.0,55,30.26,10.0,North,9.2,-,N/A,,Overcast,360,2012-10-04 20:52:00
4:52 PM,54.0,37.9,55,30.25,10.0,NNE,5.8,-,N/A,,Overcast,20,2012-10-04 21:52:00
5:52 PM,54.0,37.9,55,30.23,10.0,NE,5.8,-,N/A,,Overcast,40,2012-10-04 22:52:00
6:52 PM,53.1,39.0,59,30.25,10.0,Calm,Calm,-,N/A,,Overcast,0,2012-10-04 23:52:00
8:52 PM,52.0,42.1,69,30.26,10.0,Calm,Calm,-,N/A,,Overcast,0,2012-10-05 01:52:00
10:52 PM,52.0,45.0,77,30.26,10.0,Calm,Calm,-,N/A,,Overcast,0,2012-10-05 03:52:00
11:52 PM,52.0,44.1,74,30.27,10.0,Calm,Calm,-,0.00,,Overcast,0,2012-10-05 04:52:00